sensor_id;sensor_type;location;lat;lon;timestamp;pressure;altitude;pressure_sealevel;temperature;humidity
74561;BME280;62979;55.720;37.606;2023-03-08T00:01:17;98632.16;;;-1.16;61.98
74561;BME280;62979;55.720;37.606;2023-03-08T00:03:49;98630.44;;;-1.15;61.89
74561;BME280;62979;55.720;37.606;2023-03-08T00:06:18;98627.84;;;-1.18;61.79
74561;BME280;62979;55.720;37.606;2023-03-08T00:08:46;98638.13;;;-1.15;61.98
74561;BME280;62979;55.720;37.606;2023-03-08T00:11:14;98629.56;;;-1.22;61.98
74561;BME280;62979;55.720;37.606;2023-03-08T00:13:41;98632.13;;;-1.20;61.66
74561;BME280;62979;55.720;37.606;2023-03-08T00:16:10;98634.69;;;-1.20;61.72
74561;BME280;62979;55.720;37.606;2023-03-08T00:18:39;98635.56;;;-1.18;61.54
74561;BME280;62979;55.720;37.606;2023-03-08T00:21:07;98638.09;;;-1.23;61.90
74561;BME280;62979;55.720;37.606;2023-03-08T00:23:37;98630.38;;;-1.27;62.23
74561;BME280;62979;55.720;37.606;2023-03-08T00:26:04;98644.09;;;-1.15;62.23
74561;BME280;62979;55.720;37.606;2023-03-08T00:28:32;98643.22;;;-1.23;62.07
74561;BME280;62979;55.720;37.606;2023-03-08T00:31:00;98640.69;;;-1.21;62.36
74561;BME280;62979;55.720;37.606;2023-03-08T00:33:28;98641.53;;;-1.18;62.53
74561;BME280;62979;55.720;37.606;2023-03-08T00:35:58;98640.69;;;-1.18;61.86
74561;BME280;62979;55.720;37.606;2023-03-08T00:38:27;98648.38;;;-1.15;62.02
74561;BME280;62979;55.720;37.606;2023-03-08T00:40:57;98640.69;;;-1.15;62.00
74561;BME280;62979;55.720;37.606;2023-03-08T00:43:25;98647.59;;;-1.10;62.17
74561;BME280;62979;55.720;37.606;2023-03-08T00:45:53;98649.31;;;-1.04;61.98
74561;BME280;62979;55.720;37.606;2023-03-08T00:48:20;98651.03;;;-1.03;61.78
74561;BME280;62979;55.720;37.606;2023-03-08T00:50:47;98647.63;;;-0.99;61.88
74561;BME280;62979;55.720;37.606;2023-03-08T00:53:14;98647.63;;;-0.96;61.94
74561;BME280;62979;55.720;37.606;2023-03-08T00:55:47;98645.94;;;-0.97;61.89
74561;BME280;62979;55.720;37.606;2023-03-08T00:58:16;98639.94;;;-0.97;61.75
74561;BME280;62979;55.720;37.606;2023-03-08T01:00:44;98631.34;;;-1.05;61.84
74561;BME280;62979;55.720;37.606;2023-03-08T01:03:11;98640.75;;;-1.03;62.19
74561;BME280;62979;55.720;37.606;2023-03-08T01:05:39;98644.19;;;-1.07;61.58
74561;BME280;62979;55.720;37.606;2023-03-08T01:08:06;98637.31;;;-1.11;61.56
74561;BME280;62979;55.720;37.606;2023-03-08T01:10:34;98642.44;;;-1.11;61.56
74561;BME280;62979;55.720;37.606;2023-03-08T01:13:02;98638.13;;;-1.15;61.98
74561;BME280;62979;55.720;37.606;2023-03-08T01:15:34;98650.13;;;-1.08;61.99
74561;BME280;62979;55.720;37.606;2023-03-08T01:18:01;98645.88;;;-1.06;62.16
74561;BME280;62979;55.720;37.606;2023-03-08T01:20:29;98640.75;;;-1.06;61.74
74561;BME280;62979;55.720;37.606;2023-03-08T01:22:56;98639.03;;;-1.05;61.31
74561;BME280;62979;55.720;37.606;2023-03-08T01:25:23;98624.50;;;-1.10;60.97
74561;BME280;62979;55.720;37.606;2023-03-08T01:27:50;98612.44;;;-1.20;61.29
74561;BME280;62979;55.720;37.606;2023-03-08T01:30:17;98622.78;;;-1.12;61.16
74561;BME280;62979;55.720;37.606;2023-03-08T01:32:45;98621.03;;;-1.13;61.15
74561;BME280;62979;55.720;37.606;2023-03-08T01:35:12;98616.72;;;-1.17;61.67
74561;BME280;62979;55.720;37.606;2023-03-08T01:37:39;98620.16;;;-1.15;61.59
74561;BME280;62979;55.720;37.606;2023-03-08T01:40:08;98621.88;;;-1.17;61.89
74561;BME280;62979;55.720;37.606;2023-03-08T01:42:36;98616.72;;;-1.17;61.65
74561;BME280;62979;55.720;37.606;2023-03-08T01:48:14;98609.03;;;-1.22;61.56
74561;BME280;62979;55.720;37.606;2023-03-08T01:50:43;98608.16;;;-1.25;61.86
74561;BME280;62979;55.720;37.606;2023-03-08T01:53:12;98614.13;;;-1.25;62.00
74561;BME280;62979;55.720;37.606;2023-03-08T01:55:39;98611.53;;;-1.30;62.16
74561;BME280;62979;55.720;37.606;2023-03-08T01:58:07;98615.84;;;-1.32;61.96
74561;BME280;62979;55.720;37.606;2023-03-08T02:00:37;98612.41;;;-1.34;62.07
74561;BME280;62979;55.720;37.606;2023-03-08T02:03:07;98618.34;;;-1.35;62.15
74561;BME280;62979;55.720;37.606;2023-03-08T02:05:38;98629.47;;;-1.39;62.17
74561;BME280;62979;55.720;37.606;2023-03-08T02:08:07;98620.03;;;-1.40;62.21
74561;BME280;62979;55.720;37.606;2023-03-08T02:10:35;98628.59;;;-1.41;61.98
74561;BME280;62979;55.720;37.606;2023-03-08T02:13:03;98628.59;;;-1.44;61.83
74561;BME280;62979;55.720;37.606;2023-03-08T02:15:32;98635.41;;;-1.46;61.86
74561;BME280;62979;55.720;37.606;2023-03-08T02:18:00;98631.97;;;-1.48;61.83
74561;BME280;62979;55.720;37.606;2023-03-08T02:20:28;98633.66;;;-1.50;61.84
74561;BME280;62979;55.720;37.606;2023-03-08T02:23:07;98627.66;;;-1.54;61.96
74561;BME280;62979;55.720;37.606;2023-03-08T02:25:36;98634.50;;;-1.51;62.09
74561;BME280;62979;55.720;37.606;2023-03-08T02:28:04;98624.19;;;-1.60;62.16
74561;BME280;62979;55.720;37.606;2023-03-08T02:30:34;98626.78;;;-1.57;62.25
74561;BME280;62979;55.720;37.606;2023-03-08T02:33:03;98619.84;;;-1.70;62.33
74561;BME280;62979;55.720;37.606;2023-03-08T02:35:30;98625.84;;;-1.67;62.01
74561;BME280;62979;55.720;37.606;2023-03-08T02:37:57;98628.41;;;-1.70;61.93
74561;BME280;62979;55.720;37.606;2023-03-08T02:40:26;98618.09;;;-1.78;61.80
74561;BME280;62979;55.720;37.606;2023-03-08T02:42:53;98626.66;;;-1.74;62.32
74561;BME280;62979;55.720;37.606;2023-03-08T02:45:21;98630.06;;;-1.74;61.94
74561;BME280;62979;55.720;37.606;2023-03-08T02:47:48;98626.63;;;-1.76;62.03
74561;BME280;62979;55.720;37.606;2023-03-08T02:50:15;98630.88;;;-1.79;62.05
74561;BME280;62979;55.720;37.606;2023-03-08T02:52:42;98637.72;;;-1.78;61.82
74561;BME280;62979;55.720;37.606;2023-03-08T02:55:10;98626.56;;;-1.86;62.24
74561;BME280;62979;55.720;37.606;2023-03-08T02:57:38;98640.25;;;-1.81;62.21
74561;BME280;62979;55.720;37.606;2023-03-08T03:00:07;98641.09;;;-1.81;62.16
74561;BME280;62979;55.720;37.606;2023-03-08T03:02:35;98629.13;;;-1.86;61.75
74561;BME280;62979;55.720;37.606;2023-03-08T03:05:02;98637.63;;;-1.90;62.11
74561;BME280;62979;55.720;37.606;2023-03-08T03:07:34;98635.84;;;-1.99;62.50
74561;BME280;62979;55.720;37.606;2023-03-08T03:10:03;98627.22;;;-2.12;62.76
74561;BME280;62979;55.720;37.606;2023-03-08T03:12:30;98646.75;;;-2.20;62.96
74561;BME280;62979;55.720;37.606;2023-03-08T03:14:59;98634.72;;;-2.29;63.32
74561;BME280;62979;55.720;37.606;2023-03-08T03:17:26;98639.00;;;-2.25;63.05
74561;BME280;62979;55.720;37.606;2023-03-08T03:19:54;98605.56;;;-2.46;62.76
74561;BME280;62979;55.720;37.606;2023-03-08T03:22:22;98637.25;;;-2.30;62.43
74561;BME280;62979;55.720;37.606;2023-03-08T03:24:49;98639.81;;;-2.30;62.33
74561;BME280;62979;55.720;37.606;2023-03-08T03:27:17;98650.03;;;-2.32;62.44
74561;BME280;62979;55.720;37.606;2023-03-08T03:29:44;98640.59;;;-2.39;62.36
74561;BME280;62979;55.720;37.606;2023-03-08T03:32:12;98648.09;;;-2.54;62.49
74561;BME280;62979;55.720;37.606;2023-03-08T03:34:39;98643.78;;;-2.59;62.68
74561;BME280;62979;55.720;37.606;2023-03-08T03:37:06;98639.41;;;-2.69;62.32
74561;BME280;62979;55.720;37.606;2023-03-08T03:39:35;98648.75;;;-2.75;62.55
74561;BME280;62979;55.720;37.606;2023-03-08T03:42:03;98646.75;;;-2.99;62.34
74561;BME280;62979;55.720;37.606;2023-03-08T03:44:31;98655.00;;;-3.17;62.46
74561;BME280;62979;55.720;37.606;2023-03-08T03:46:58;98648.97;;;-3.24;62.81
74561;BME280;62979;55.720;37.606;2023-03-08T03:49:27;98647.09;;;-3.36;62.70
74561;BME280;62979;55.720;37.606;2023-03-08T03:51:54;98654.03;;;-3.27;62.82
74561;BME280;62979;55.720;37.606;2023-03-08T03:54:21;98652.41;;;-3.20;62.61
74561;BME280;62979;55.720;37.606;2023-03-08T03:56:48;98647.34;;;-3.19;62.74
74561;BME280;62979;55.720;37.606;2023-03-08T03:59:16;98642.91;;;-3.31;63.37
74561;BME280;62979;55.720;37.606;2023-03-08T04:01:42;98654.16;;;-3.18;63.34
74561;BME280;62979;55.720;37.606;2023-03-08T04:04:09;98655.91;;;-3.15;63.46
74561;BME280;62979;55.720;37.606;2023-03-08T04:06:39;98659.38;;;-3.12;63.52
74561;BME280;62979;55.720;37.606;2023-03-08T04:09:09;98651.66;;;-3.13;63.08
74561;BME280;62979;55.720;37.606;2023-03-08T04:11:39;98658.63;;;-3.00;62.82
74561;BME280;62979;55.720;37.606;2023-03-08T04:14:07;98650.16;;;-2.99;62.24
74561;BME280;62979;55.720;37.606;2023-03-08T04:16:35;98653.75;;;-2.85;61.99
74561;BME280;62979;55.720;37.606;2023-03-08T04:19:06;98668.38;;;-2.73;62.23
74561;BME280;62979;55.720;37.606;2023-03-08T04:21:36;98666.75;;;-2.68;61.73
74561;BME280;62979;55.720;37.606;2023-03-08T04:24:05;98671.97;;;-2.57;62.35
74561;BME280;62979;55.720;37.606;2023-03-08T04:26:32;98653.03;;;-2.71;62.24
74561;BME280;62979;55.720;37.606;2023-03-08T04:28:59;98673.59;;;-2.64;63.11
74561;BME280;62979;55.720;37.606;2023-03-08T04:31:31;98676.97;;;-2.66;63.80
74561;BME280;62979;55.720;37.606;2023-03-08T04:34:00;98679.56;;;-2.65;63.83
74561;BME280;62979;55.720;37.606;2023-03-08T04:36:27;98680.47;;;-2.60;63.71
74561;BME280;62979;55.720;37.606;2023-03-08T04:38:54;98682.97;;;-2.66;64.32
74561;BME280;62979;55.720;37.606;2023-03-08T04:41:23;98682.16;;;-2.63;64.53
74561;BME280;62979;55.720;37.606;2023-03-08T04:43:52;98683.03;;;-2.60;64.51
74561;BME280;62979;55.720;37.606;2023-03-08T04:46:21;98690.72;;;-2.56;64.47
74561;BME280;62979;55.720;37.606;2023-03-08T04:48:51;98700.25;;;-2.46;64.45
74561;BME280;62979;55.720;37.606;2023-03-08T04:51:19;98697.63;;;-2.52;64.46
74561;BME280;62979;55.720;37.606;2023-03-08T04:53:47;98701.00;;;-2.55;64.82
74561;BME280;62979;55.720;37.606;2023-03-08T04:56:15;98709.41;;;-2.64;64.89
74561;BME280;62979;55.720;37.606;2023-03-08T04:58:44;98705.00;;;-2.77;65.15
74561;BME280;62979;55.720;37.606;2023-03-08T05:01:12;98697.19;;;-2.86;65.79
74561;BME280;62979;55.720;37.606;2023-03-08T05:03:40;98711.75;;;-2.81;65.41
74561;BME280;62979;55.720;37.606;2023-03-08T05:06:08;98698.13;;;-2.81;65.69
74561;BME280;62979;55.720;37.606;2023-03-08T05:08:37;98713.47;;;-2.83;65.36
74561;BME280;62979;55.720;37.606;2023-03-08T05:11:04;98711.78;;;-2.79;65.63
74561;BME280;62979;55.720;37.606;2023-03-08T05:13:34;98700.69;;;-2.78;65.76
74561;BME280;62979;55.720;37.606;2023-03-08T05:16:06;98704.28;;;-2.67;65.17
74561;BME280;62979;55.720;37.606;2023-03-08T05:18:33;98698.34;;;-2.63;64.53
74561;BME280;62979;55.720;37.606;2023-03-08T05:21:02;98706.00;;;-2.66;64.50
74561;BME280;62979;55.720;37.606;2023-03-08T05:23:31;98710.16;;;-2.75;64.53
74561;BME280;62979;55.720;37.606;2023-03-08T05:26:00;98688.88;;;-2.68;64.63
74561;BME280;62979;55.720;37.606;2023-03-08T05:28:30;98681.94;;;-2.80;64.77
74561;BME280;62979;55.720;37.606;2023-03-08T05:31:04;98702.63;;;-2.63;64.51
74561;BME280;62979;55.720;37.606;2023-03-08T05:33:33;98690.72;;;-2.60;64.33
74561;BME280;62979;55.720;37.606;2023-03-08T05:36:00;98692.41;;;-2.59;64.39
74561;BME280;62979;55.720;37.606;2023-03-08T05:38:28;98692.41;;;-2.59;64.58
74561;BME280;62979;55.720;37.606;2023-03-08T05:40:58;98682.22;;;-2.54;64.49
74561;BME280;62979;55.720;37.606;2023-03-08T05:43:26;98680.69;;;-2.40;64.27
74561;BME280;62979;55.720;37.606;2023-03-08T05:45:53;98688.47;;;-2.30;64.45
74561;BME280;62979;55.720;37.606;2023-03-08T05:48:24;98664.44;;;-2.43;64.27
74561;BME280;62979;55.720;37.606;2023-03-08T05:50:51;98691.13;;;-2.20;64.37
74561;BME280;62979;55.720;37.606;2023-03-08T05:53:19;98681.66;;;-2.27;64.50
74561;BME280;62979;55.720;37.606;2023-03-08T05:55:46;98683.41;;;-2.26;64.82
74561;BME280;62979;55.720;37.606;2023-03-08T05:58:13;98683.56;;;-2.09;64.55
74561;BME280;62979;55.720;37.606;2023-03-08T06:00:40;98684.50;;;-2.02;63.95
74561;BME280;62979;55.720;37.606;2023-03-08T06:03:07;98677.72;;;-1.97;63.98
74561;BME280;62979;55.720;37.606;2023-03-08T06:05:36;98687.19;;;-1.87;63.92
74561;BME280;62979;55.720;37.606;2023-03-08T06:08:04;98694.81;;;-1.93;63.47
74561;BME280;62979;55.720;37.606;2023-03-08T06:10:31;98674.16;;;-2.10;63.89
74561;BME280;62979;55.720;37.606;2023-03-08T06:12:58;98686.06;;;-2.17;63.61
74561;BME280;62979;55.720;37.606;2023-03-08T06:15:25;98679.09;;;-2.27;63.62
74561;BME280;62979;55.720;37.606;2023-03-08T06:17:52;98679.88;;;-2.39;63.97
74561;BME280;62979;55.720;37.606;2023-03-08T06:20:19;98690.13;;;-2.35;64.27
74561;BME280;62979;55.720;37.606;2023-03-08T06:22:48;98675.50;;;-2.47;64.17
74561;BME280;62979;55.720;37.606;2023-03-08T06:25:15;98696.06;;;-2.38;64.14
74561;BME280;62979;55.720;37.606;2023-03-08T06:27:42;98680.59;;;-2.47;64.62
74561;BME280;62979;55.720;37.606;2023-03-08T06:30:10;98701.13;;;-2.44;64.44
74561;BME280;62979;55.720;37.606;2023-03-08T06:32:37;98677.31;;;-2.35;64.34
74561;BME280;62979;55.720;37.606;2023-03-08T06:35:05;98677.22;;;-2.46;64.69
74561;BME280;62979;55.720;37.606;2023-03-08T06:37:32;98683.13;;;-2.49;64.49
74561;BME280;62979;55.720;37.606;2023-03-08T06:40:02;98650.00;;;-2.38;64.20
74561;BME280;62979;55.720;37.606;2023-03-08T06:42:33;98665.38;;;-2.35;64.38
74561;BME280;62979;55.720;37.606;2023-03-08T06:45:00;98650.03;;;-2.32;64.40
74561;BME280;62979;55.720;37.606;2023-03-08T06:47:28;98654.38;;;-2.26;64.10
74561;BME280;62979;55.720;37.606;2023-03-08T06:49:55;98632.19;;;-2.26;63.97
74561;BME280;62979;55.720;37.606;2023-03-08T06:52:22;98633.97;;;-2.17;63.53
74561;BME280;62979;55.720;37.606;2023-03-08T06:54:49;98608.28;;;-2.25;63.45
74561;BME280;62979;55.720;37.606;2023-03-08T06:57:18;98616.97;;;-2.07;63.16
74561;BME280;62979;55.720;37.606;2023-03-08T06:59:44;98612.00;;;-1.89;63.45
74561;BME280;62979;55.720;37.606;2023-03-08T07:02:11;98612.78;;;-1.98;63.57
74561;BME280;62979;55.720;37.606;2023-03-08T07:04:38;98596.78;;;-1.70;63.38
74561;BME280;62979;55.720;37.606;2023-03-08T07:07:05;98594.25;;;-1.61;62.57
74561;BME280;62979;55.720;37.606;2023-03-08T07:09:33;98599.38;;;-1.64;62.83
74561;BME280;62979;55.720;37.606;2023-03-08T07:12:00;98602.00;;;-1.55;62.34
74561;BME280;62979;55.720;37.606;2023-03-08T07:14:28;98582.31;;;-1.59;62.45
74561;BME280;62979;55.720;37.606;2023-03-08T07:16:55;98571.19;;;-1.63;62.65
74561;BME280;62979;55.720;37.606;2023-03-08T07:19:22;98580.63;;;-1.54;62.53
74561;BME280;62979;55.720;37.606;2023-03-08T07:21:49;98565.28;;;-1.51;62.65
74561;BME280;62979;55.720;37.606;2023-03-08T07:24:16;98567.84;;;-1.56;62.71
74561;BME280;62979;55.720;37.606;2023-03-08T07:26:43;98580.69;;;-1.45;62.55
74561;BME280;62979;55.720;37.606;2023-03-08T07:29:10;98571.34;;;-1.38;61.93
74561;BME280;62979;55.720;37.606;2023-03-08T07:31:38;98567.91;;;-1.43;61.87
74561;BME280;62979;55.720;37.606;2023-03-08T07:34:05;98561.94;;;-1.35;61.28
74561;BME280;62979;55.720;37.606;2023-03-08T07:36:32;98576.53;;;-1.26;61.25
74561;BME280;62979;55.720;37.606;2023-03-08T07:38:59;98586.81;;;-1.15;61.05
74561;BME280;62979;55.720;37.606;2023-03-08T07:41:26;98574.00;;;-1.15;60.62
74561;BME280;62979;55.720;37.606;2023-03-08T07:43:56;98577.41;;;-1.21;60.71
74561;BME280;62979;55.720;37.606;2023-03-08T07:46:22;98567.13;;;-1.22;60.74
74561;BME280;62979;55.720;37.606;2023-03-08T07:48:53;98568.00;;;-1.16;60.84
74561;BME280;62979;55.720;37.606;2023-03-08T07:51:20;98578.34;;;-0.93;60.57
74561;BME280;62979;55.720;37.606;2023-03-08T07:53:47;98567.28;;;-0.81;60.34
74561;BME280;62979;55.720;37.606;2023-03-08T07:56:14;98570.75;;;-0.65;60.11
74561;BME280;62979;55.720;37.606;2023-03-08T07:58:41;98565.59;;;-0.70;59.73
74561;BME280;62979;55.720;37.606;2023-03-08T08:01:09;98571.59;;;-0.66;59.07
74561;BME280;62979;55.720;37.606;2023-03-08T08:03:38;98586.16;;;-0.54;59.14
74561;BME280;62979;55.720;37.606;2023-03-08T08:06:07;98567.38;;;-0.46;59.11
74561;BME280;62979;55.720;37.606;2023-03-08T08:08:34;98561.38;;;-0.34;58.61
74561;BME280;62979;55.720;37.606;2023-03-08T08:11:01;98551.97;;;-0.33;58.52
74561;BME280;62979;55.720;37.606;2023-03-08T08:13:34;98543.38;;;-0.45;57.60
74561;BME280;62979;55.720;37.606;2023-03-08T08:16:01;98550.22;;;-0.53;57.96
74561;BME280;62979;55.720;37.606;2023-03-08T08:18:28;98544.22;;;-0.56;57.74
74561;BME280;62979;55.720;37.606;2023-03-08T08:21:00;98548.47;;;-0.66;58.11
74561;BME280;62979;55.720;37.606;2023-03-08T08:23:29;98542.53;;;-0.53;58.41
74561;BME280;62979;55.720;37.606;2023-03-08T08:25:56;98548.47;;;-0.69;58.82
74561;BME280;62979;55.720;37.606;2023-03-08T08:28:24;98551.00;;;-0.83;59.00
74561;BME280;62979;55.720;37.606;2023-03-08T08:30:56;98545.03;;;-0.83;59.09
74561;BME280;62979;55.720;37.606;2023-03-08T08:33:24;98551.94;;;-0.62;59.05
74561;BME280;62979;55.720;37.606;2023-03-08T08:35:51;98524.50;;;-0.79;58.73
74561;BME280;62979;55.720;37.606;2023-03-08T08:38:18;98529.66;;;-0.62;58.82
74561;BME280;62979;55.720;37.606;2023-03-08T08:40:46;98524.56;;;-0.44;58.56
74561;BME280;62979;55.720;37.606;2023-03-08T08:43:13;98538.25;;;-0.38;58.54
74561;BME280;62979;55.720;37.606;2023-03-08T08:45:43;98528.00;;;-0.38;58.36
74561;BME280;62979;55.720;37.606;2023-03-08T08:48:12;98545.94;;;-0.37;58.57
74561;BME280;62979;55.720;37.606;2023-03-08T08:50:40;98551.06;;;-0.54;58.57
74561;BME280;62979;55.720;37.606;2023-03-08T08:53:08;98524.56;;;-0.44;58.52
74561;BME280;62979;55.720;37.606;2023-03-08T08:55:36;98529.69;;;-0.16;57.88
74561;BME280;62979;55.720;37.606;2023-03-08T08:58:05;98527.97;;;-0.03;57.83
74561;BME280;62979;55.720;37.606;2023-03-08T09:00:33;98533.97;;;-0.04;57.77
74561;BME280;62979;55.720;37.606;2023-03-08T09:03:01;98507.44;;;-0.25;57.41
74561;BME280;62979;55.720;37.606;2023-03-08T09:05:30;98516.00;;;-0.09;57.48
74561;BME280;62979;55.720;37.606;2023-03-08T09:07:58;98503.16;;;-0.29;58.04
74561;BME280;62979;55.720;37.606;2023-03-08T09:10:28;98505.72;;;-0.12;58.03
74561;BME280;62979;55.720;37.606;2023-03-08T09:12:57;98499.72;;;-0.23;57.68
74561;BME280;62979;55.720;37.606;2023-03-08T09:15:26;98512.56;;;-0.20;58.12
74561;BME280;62979;55.720;37.606;2023-03-08T09:17:53;98473.19;;;-0.47;57.74
74561;BME280;62979;55.720;37.606;2023-03-08T09:20:20;98498.88;;;-0.19;58.22
74561;BME280;62979;55.720;37.606;2023-03-08T09:22:48;98484.28;;;-0.12;57.47
74561;BME280;62979;55.720;37.606;2023-03-08T09:25:15;98488.59;;;-0.25;57.71
74561;BME280;62979;55.720;37.606;2023-03-08T09:27:43;98501.44;;;-0.28;57.87
74561;BME280;62979;55.720;37.606;2023-03-08T09:30:12;98455.19;;;-0.30;57.97
74561;BME280;62979;55.720;37.606;2023-03-08T09:32:42;98479.16;;;-0.02;57.20
74561;BME280;62979;55.720;37.606;2023-03-08T09:35:09;98459.44;;;-0.03;57.11
74561;BME280;62979;55.720;37.606;2023-03-08T09:37:36;98455.94;;;0.26;57.27
74561;BME280;62979;55.720;37.606;2023-03-08T09:40:04;98433.63;;;0.37;57.01
74561;BME280;62979;55.720;37.606;2023-03-08T09:42:34;98418.22;;;0.34;56.67
74561;BME280;62979;55.720;37.606;2023-03-08T09:45:07;98441.31;;;0.45;56.62
74561;BME280;62979;55.720;37.606;2023-03-08T09:47:46;98429.31;;;0.42;56.97
74561;BME280;62979;55.720;37.606;2023-03-08T09:50:31;98413.91;;;0.38;57.18
74561;BME280;62979;55.720;37.606;2023-03-08T09:53:08;98394.09;;;0.61;56.49
74561;BME280;62979;55.720;37.606;2023-03-08T09:55:46;98410.19;;;0.91;55.86
74561;BME280;62979;55.720;37.606;2023-03-08T09:58:21;98422.13;;;1.03;55.03
74561;BME280;62979;55.720;37.606;2023-03-08T10:01:00;98419.56;;;1.03;55.07
74561;BME280;62979;55.720;37.606;2023-03-08T10:03:52;98395.47;;;1.10;55.52
74561;BME280;62979;55.720;37.606;2023-03-08T10:06:44;98389.38;;;1.19;54.59
74561;BME280;62979;55.720;37.606;2023-03-08T10:09:26;98387.34;;;1.58;54.02
74561;BME280;62979;55.720;37.606;2023-03-08T10:12:02;98379.72;;;1.44;53.70
74561;BME280;62979;55.720;37.606;2023-03-08T10:14:44;98365.78;;;1.66;53.88
74561;BME280;62979;55.720;37.606;2023-03-08T10:17:18;98370.31;;;1.41;53.78
74561;BME280;62979;55.720;37.606;2023-03-08T10:19:53;98350.50;;;1.48;53.55
74561;BME280;62979;55.720;37.606;2023-03-08T10:22:26;98366.00;;;1.46;53.24
74561;BME280;62979;55.720;37.606;2023-03-08T10:24:59;98350.00;;;1.09;54.73
74561;BME280;62979;55.720;37.606;2023-03-08T10:27:32;98356.06;;;1.05;54.98
74561;BME280;62979;55.720;37.606;2023-03-08T10:30:11;98350.09;;;0.97;54.81
74561;BME280;62979;55.720;37.606;2023-03-08T10:32:41;98357.81;;;0.97;54.65
74561;BME280;62979;55.720;37.606;2023-03-08T10:35:09;98352.69;;;0.94;55.04
74561;BME280;62979;55.720;37.606;2023-03-08T10:37:36;98332.03;;;1.03;55.11
74561;BME280;62979;55.720;37.606;2023-03-08T10:40:08;98328.66;;;0.98;55.07
74561;BME280;62979;55.720;37.606;2023-03-08T10:42:48;98332.13;;;0.91;54.80
74561;BME280;62979;55.720;37.606;2023-03-08T10:45:20;98327.75;;;1.02;54.51
74561;BME280;62979;55.720;37.606;2023-03-08T10:47:54;98309.88;;;0.80;55.31
74561;BME280;62979;55.720;37.606;2023-03-08T10:50:27;98321.84;;;0.89;55.57
74561;BME280;62979;55.720;37.606;2023-03-08T10:53:07;98327.00;;;0.91;55.17
74561;BME280;62979;55.720;37.606;2023-03-08T10:55:42;98318.25;;;1.09;54.45
74561;BME280;62979;55.720;37.606;2023-03-08T10:58:26;98320.09;;;0.96;54.82
74561;BME280;62979;55.720;37.606;2023-03-08T11:01:01;98309.72;;;1.05;54.98
74561;BME280;62979;55.720;37.606;2023-03-08T11:03:30;98292.66;;;0.92;54.85
74561;BME280;62979;55.720;37.606;2023-03-08T11:06:00;98301.97;;;1.06;54.75
74561;BME280;62979;55.720;37.606;2023-03-08T11:08:30;98294.19;;;1.13;54.82
74561;BME280;62979;55.720;37.606;2023-03-08T11:11:00;98293.19;;;1.26;54.06
74561;BME280;62979;55.720;37.606;2023-03-08T11:13:34;98288.13;;;1.20;53.78
74561;BME280;62979;55.720;37.606;2023-03-08T11:16:21;98272.75;;;1.09;55.06
74561;BME280;62979;55.720;37.606;2023-03-08T11:19:02;98279.59;;;1.12;54.55
74561;BME280;62979;55.720;37.606;2023-03-08T11:21:46;98266.50;;;1.35;54.36
74561;BME280;62979;55.720;37.606;2023-03-08T11:24:30;98247.47;;;1.48;54.37
74561;BME280;62979;55.720;37.606;2023-03-08T11:27:19;98256.06;;;1.45;53.43
74561;BME280;62979;55.720;37.606;2023-03-08T11:30:11;98234.72;;;1.36;53.70
74561;BME280;62979;55.720;37.606;2023-03-08T11:32:58;98230.41;;;1.36;54.31
74561;BME280;62979;55.720;37.606;2023-03-08T11:35:44;98228.69;;;1.40;53.75
74561;BME280;62979;55.720;37.606;2023-03-08T11:38:21;98216.34;;;1.66;53.49
74561;BME280;62979;55.720;37.606;2023-03-08T11:40:57;98216.25;;;1.73;53.46
74561;BME280;62979;55.720;37.606;2023-03-08T11:43:46;98207.59;;;1.77;53.44
74561;BME280;62979;55.720;37.606;2023-03-08T11:46:39;98214.22;;;1.96;53.67
74561;BME280;62979;55.720;37.606;2023-03-08T11:49:29;98209.28;;;1.79;52.79
74561;BME280;62979;55.720;37.606;2023-03-08T11:52:16;98204.09;;;1.84;52.91
74561;BME280;62979;55.720;37.606;2023-03-08T11:55:06;98194.78;;;1.72;53.24
74561;BME280;62979;55.720;37.606;2023-03-08T11:57:47;98197.41;;;1.67;53.62
74561;BME280;62979;55.720;37.606;2023-03-08T12:00:23;98190.41;;;1.79;53.40
74561;BME280;62979;55.720;37.606;2023-03-08T12:03:00;98177.59;;;1.74;53.20
74561;BME280;62979;55.720;37.606;2023-03-08T12:05:38;98167.34;;;1.69;53.19
74561;BME280;62979;55.720;37.606;2023-03-08T12:08:12;98171.53;;;1.77;53.56
74561;BME280;62979;55.720;37.606;2023-03-08T12:10:50;98173.44;;;1.62;53.62
74561;BME280;62979;55.720;37.606;2023-03-08T12:13:25;98160.63;;;1.58;54.30
74561;BME280;62979;55.720;37.606;2023-03-08T12:16:01;98156.50;;;1.43;54.30
74561;BME280;62979;55.720;37.606;2023-03-08T12:18:37;98136.75;;;1.43;55.06
74561;BME280;62979;55.720;37.606;2023-03-08T12:21:17;98139.53;;;1.30;54.86
74561;BME280;62979;55.720;37.606;2023-03-08T12:24:00;98134.31;;;1.34;54.61
74561;BME280;62979;55.720;37.606;2023-03-08T12:26:40;98133.44;;;1.34;55.47
74561;BME280;62979;55.720;37.606;2023-03-08T12:29:17;98131.66;;;1.39;55.58
74561;BME280;62979;55.720;37.606;2023-03-08T12:31:51;98115.47;;;1.31;55.60
74561;BME280;62979;55.720;37.606;2023-03-08T12:34:27;98113.00;;;1.21;56.13
74561;BME280;62979;55.720;37.606;2023-03-08T12:37:01;98108.78;;;1.16;56.02
74561;BME280;62979;55.720;37.606;2023-03-08T12:39:31;98103.78;;;1.02;56.32
74561;BME280;62979;55.720;37.606;2023-03-08T12:42:13;98100.53;;;0.88;56.89
74561;BME280;62979;55.720;37.606;2023-03-08T12:44:42;98109.25;;;0.76;57.95
74561;BME280;62979;55.720;37.606;2023-03-08T12:47:18;98074.88;;;0.80;57.78
74561;BME280;62979;55.720;37.606;2023-03-08T12:49:50;98091.88;;;0.95;58.01
74561;BME280;62979;55.720;37.606;2023-03-08T12:52:26;98078.16;;;0.96;57.63
74561;BME280;62979;55.720;37.606;2023-03-08T12:54:59;98080.47;;;1.14;58.14
74561;BME280;62979;55.720;37.606;2023-03-08T12:57:33;98078.69;;;1.21;58.00
74561;BME280;62979;55.720;37.606;2023-03-08T13:02:58;98070.53;;;0.88;58.39
74561;BME280;62979;55.720;37.606;2023-03-08T13:05:30;98061.81;;;0.98;58.66
74561;BME280;62979;55.720;37.606;2023-03-08T13:08:06;98070.53;;;0.87;58.85
74561;BME280;62979;55.720;37.606;2023-03-08T13:10:59;98063.53;;;0.98;59.50
74561;BME280;62979;55.720;37.606;2023-03-08T13:13:38;98051.69;;;0.84;59.97
74561;BME280;62979;55.720;37.606;2023-03-08T13:16:28;98034.72;;;0.68;60.02